Time;durP1;ratioP1;P1;durP2;ratioP2;P2;SDS_P1;SDS_P2;PMS_P1;PMS_P2;Temp;Humidity;BMP_temperature;BMP_pressure;BME280_temperature;BME280_humidity;BME280_pressure;Samples;Min_cycle;Max_cycle;Signal;HPM_P1;HPM_P2
2022/12/31 00:01:19;;;;;;;0.30;0.20;;;10.40;99.90;;;;;;5075285;28;20824;-81
2022/12/31 00:03:46;;;;;;;0.40;0.30;;;10.50;99.90;;;;;;5075514;28;20484;-81
2022/12/31 00:06:15;;;;;;;0.30;0.20;;;10.50;99.90;;;;;;5075702;28;20567;-81
2022/12/31 00:08:44;;;;;;;0.30;0.30;;;10.50;99.90;;;;;;5075738;28;20437;-80
2022/12/31 00:11:11;;;;;;;5.37;0.70;;;10.50;99.90;;;;;;5075417;28;20472;-81
2022/12/31 00:13:38;;;;;;;0.30;0.30;;;10.50;99.90;;;;;;5075141;28;20508;-81
2022/12/31 00:16:10;;;;;;;0.50;0.30;;;10.50;99.90;;;;;;5075291;28;20445;-81
2022/12/31 00:18:37;;;;;;;0.50;0.30;;;10.60;99.90;;;;;;5074992;28;20945;-81
2022/12/31 00:21:07;;;;;;;0.30;0.30;;;10.50;99.90;;;;;;5075204;28;20476;-81
2022/12/31 00:23:34;;;;;;;0.30;0.20;;;10.50;99.90;;;;;;5075128;28;20468;-81
2022/12/31 00:26:07;;;;;;;0.30;0.30;;;10.50;99.90;;;;;;5075054;28;20504;-81
2022/12/31 00:28:35;;;;;;;0.30;0.30;;;10.50;99.90;;;;;;5075187;28;20783;-81
2022/12/31 00:31:10;;;;;;;0.30;0.30;;;10.50;99.90;;;;;;5075050;28;20499;-81
2022/12/31 00:33:37;;;;;;;0.40;0.40;;;10.50;99.90;;;;;;5074948;28;20575;-81
2022/12/31 00:36:06;;;;;;;0.30;0.30;;;10.60;99.90;;;;;;5075034;28;20457;-81
2022/12/31 00:38:32;;;;;;;0.30;0.20;;;10.60;99.90;;;;;;5074899;28;20441;-81
2022/12/31 00:40:59;;;;;;;0.30;0.20;;;10.70;99.90;;;;;;5074875;28;20445;-81
2022/12/31 00:43:27;;;;;;;0.30;0.23;;;10.80;99.90;;;;;;5074988;28;20473;-81
2022/12/31 00:45:54;;;;;;;0.40;0.30;;;10.80;99.90;;;;;;5074848;28;20469;-81
2022/12/31 00:48:21;;;;;;;0.30;0.30;;;10.90;99.90;;;;;;5074963;28;20460;-81
2022/12/31 00:50:47;;;;;;;0.30;0.30;;;10.90;99.90;;;;;;5074292;28;20441;-81
2022/12/31 00:53:14;;;;;;;0.30;0.30;;;11.00;99.90;;;;;;5074502;28;20450;-81
2022/12/31 00:55:41;;;;;;;0.30;0.20;;;11.10;99.90;;;;;;5074530;28;20446;-81
2022/12/31 00:58:08;;;;;;;1.43;0.40;;;11.10;99.90;;;;;;5074464;28;20442;-81
2022/12/31 01:00:38;;;;;;;0.40;0.30;;;11.20;99.90;;;;;;5074405;28;20434;-82
2022/12/31 01:03:05;;;;;;;0.30;0.20;;;11.20;99.90;;;;;;5074330;28;20456;-81
2022/12/31 01:05:33;;;;;;;0.30;0.30;;;11.30;99.90;;;;;;5074613;28;20442;-81
2022/12/31 01:07:59;;;;;;;0.40;0.30;;;11.30;99.90;;;;;;5073896;28;20494;-81
2022/12/31 01:13:10;;;;;;;0.30;0.30;;;11.30;99.90;;;;;;5073859;28;20854;-82
2022/12/31 01:15:39;;;;;;;0.40;0.30;;;11.30;99.90;;;;;;5073810;28;20940;-81
2022/12/31 01:18:07;;;;;;;0.40;0.30;;;11.30;99.90;;;;;;5074105;28;20446;-81
2022/12/31 01:20:36;;;;;;;0.30;0.30;;;11.40;99.90;;;;;;5074219;28;20450;-81
2022/12/31 01:23:03;;;;;;;0.53;0.40;;;11.40;99.90;;;;;;5074031;28;20449;-81
2022/12/31 01:25:29;;;;;;;0.40;0.40;;;11.40;99.90;;;;;;5074159;28;20474;-82
2022/12/31 01:27:56;;;;;;;0.30;0.23;;;11.40;99.90;;;;;;5073840;28;20481;-81
2022/12/31 01:30:23;;;;;;;0.30;0.30;;;11.50;99.90;;;;;;5073897;28;20838;-81
2022/12/31 01:32:51;;;;;;;0.30;0.30;;;11.60;99.90;;;;;;5073821;28;20449;-81
2022/12/31 01:35:18;;;;;;;0.30;0.30;;;11.70;99.90;;;;;;5073725;28;20476;-81
2022/12/31 01:37:45;;;;;;;0.30;0.30;;;11.70;99.90;;;;;;5073728;28;20447;-82
2022/12/31 01:40:12;;;;;;;0.30;0.20;;;11.70;99.90;;;;;;5073400;28;20456;-81
2022/12/31 01:42:39;;;;;;;0.30;0.30;;;11.60;99.90;;;;;;5073453;28;20948;-82
2022/12/31 01:45:10;;;;;;;0.40;0.33;;;11.60;99.90;;;;;;5073321;28;20972;-82
2022/12/31 01:47:41;;;;;;;0.30;0.30;;;11.50;99.90;;;;;;5074126;28;20481;-82
2022/12/31 01:50:14;;;;;;;0.30;0.30;;;11.40;99.90;;;;;;5073667;28;20433;-81
2022/12/31 01:52:45;;;;;;;0.30;0.30;;;11.50;99.90;;;;;;5073630;28;20437;-82
2022/12/31 01:55:16;;;;;;;0.30;0.30;;;11.60;99.90;;;;;;5073484;28;20462;-81
2022/12/31 01:57:45;;;;;;;0.40;0.30;;;11.50;99.90;;;;;;5073259;28;20920;-82
2022/12/31 02:00:13;;;;;;;0.37;0.30;;;11.50;99.90;;;;;;5073777;28;20461;-82
2022/12/31 02:02:40;;;;;;;0.30;0.30;;;11.40;99.90;;;;;;5073153;28;20445;-81
2022/12/31 02:05:16;;;;;;;0.40;0.33;;;11.30;99.90;;;;;;5073383;28;20466;-82
2022/12/31 02:07:44;;;;;;;0.40;0.20;;;11.30;99.90;;;;;;5073361;28;20462;-82
2022/12/31 02:10:11;;;;;;;0.30;0.30;;;11.30;99.90;;;;;;5073381;28;20544;-82
2022/12/31 02:12:37;;;;;;;0.30;0.30;;;11.30;99.90;;;;;;5072980;28;20989;-82
2022/12/31 02:15:05;;;;;;;0.30;0.30;;;11.20;99.90;;;;;;5072970;28;20835;-82
2022/12/31 02:17:37;;;;;;;0.40;0.30;;;11.10;99.90;;;;;;5073276;28;20442;-82
2022/12/31 02:20:46;;;;;;;0.30;0.30;;;11.20;99.90;;;;;;5075456;28;20468;-82
2022/12/31 02:23:26;;;;;;;0.30;0.30;;;11.20;99.90;;;;;;5017685;28;20447;-81
2022/12/31 02:26:10;;;;;;;0.50;0.30;;;11.30;99.90;;;;;;5075534;28;20460;-82
2022/12/31 02:29:02;;;;;;;0.30;0.30;;;11.40;99.90;;;;;;5079951;28;20426;-81
2022/12/31 02:31:35;;;;;;;0.30;0.30;;;11.40;99.90;;;;;;5080118;28;20429;-81
2022/12/31 02:34:07;;;;;;;0.40;0.40;;;11.40;99.90;;;;;;5079813;28;20818;-82
2022/12/31 02:36:37;;;;;;;6.43;0.33;;;11.40;99.90;;;;;;5079839;28;20430;-82
2022/12/31 02:39:07;;;;;;;0.30;0.30;;;11.50;99.90;;;;;;5079910;28;20429;-81
2022/12/31 02:41:52;;;;;;;0.30;0.30;;;11.60;99.90;;;;;;5079786;28;20449;-82
2022/12/31 02:44:24;;;;;;;0.40;0.30;;;11.60;99.90;;;;;;5079378;28;20968;-82
2022/12/31 02:47:12;;;;;;;0.30;0.30;;;11.80;99.90;;;;;;5079648;28;20485;-82
2022/12/31 02:49:47;;;;;;;4.00;0.37;;;11.80;99.90;;;;;;5079732;28;20425;-82
2022/12/31 02:52:21;;;;;;;0.30;0.30;;;11.80;99.90;;;;;;5079924;28;20426;-81
2022/12/31 02:54:55;;;;;;;0.40;0.30;;;11.90;99.90;;;;;;5079299;28;20472;-82
2022/12/31 02:57:30;;;;;;;0.40;0.30;;;11.90;99.90;;;;;;5079378;28;20935;-82
2022/12/31 03:02:48;;;;;;;0.50;0.30;;;11.90;99.90;;;;;;5079697;28;20417;-82
2022/12/31 03:05:18;;;;;;;0.50;0.30;;;11.90;99.90;;;;;;5079790;28;20473;-81
2022/12/31 03:07:45;;;;;;;0.57;0.40;;;12.00;99.90;;;;;;5079443;28;20500;-82
2022/12/31 03:10:12;;;;;;;0.47;0.30;;;12.10;99.90;;;;;;5079482;28;20460;-81
2022/12/31 03:12:46;;;;;;;0.30;0.30;;;12.10;99.90;;;;;;5079239;28;20492;-82
2022/12/31 03:15:21;;;;;;;0.40;0.40;;;12.20;99.90;;;;;;5079409;28;20538;-82
2022/12/31 03:17:56;;;;;;;0.30;0.30;;;12.20;99.90;;;;;;5079214;28;20781;-82
2022/12/31 03:23:13;;;;;;;0.30;0.30;;;12.30;99.90;;;;;;5079306;28;20409;-81
2022/12/31 03:25:39;;;;;;;0.40;0.30;;;12.40;99.90;;;;;;5079421;28;20425;-81
2022/12/31 03:28:08;;;;;;;0.40;0.30;;;12.30;99.90;;;;;;5079287;28;20491;-81
2022/12/31 03:30:36;;;;;;;0.40;0.30;;;12.30;99.90;;;;;;5079312;28;20633;-82
2022/12/31 03:33:05;;;;;;;0.40;0.30;;;12.40;99.90;;;;;;5075315;28;20438;-82
2022/12/31 03:35:34;;;;;;;0.50;0.50;;;12.40;99.90;;;;;;5075861;28;20441;-81
2022/12/31 03:38:00;;;;;;;0.40;0.30;;;12.40;99.90;;;;;;5076316;28;20445;-81
2022/12/31 03:40:29;;;;;;;0.30;0.30;;;12.40;99.90;;;;;;5076030;28;20452;-81
2022/12/31 03:42:55;;;;;;;0.33;0.30;;;12.40;99.90;;;;;;5076052;28;20456;-81
2022/12/31 03:45:22;;;;;;;0.50;0.50;;;12.40;99.90;;;;;;5075532;28;20843;-82
2022/12/31 03:47:50;;;;;;;0.37;0.30;;;12.40;99.90;;;;;;5075831;28;20488;-81
2022/12/31 03:50:19;;;;;;;0.87;0.30;;;12.40;99.90;;;;;;5075828;28;20453;-82
2022/12/31 03:52:46;;;;;;;0.83;0.47;;;12.40;99.90;;;;;;5075432;28;20817;-81
2022/12/31 03:55:13;;;;;;;0.30;0.30;;;12.40;99.90;;;;;;5075651;28;20473;-82
2022/12/31 03:57:40;;;;;;;0.40;0.37;;;12.50;99.90;;;;;;5075856;28;20449;-81
2022/12/31 04:00:10;;;;;;;0.37;0.30;;;12.50;99.90;;;;;;5075642;28;20446;-81
2022/12/31 04:02:36;;;;;;;0.40;0.30;;;12.60;99.90;;;;;;5075602;28;20472;-81
2022/12/31 04:05:04;;;;;;;0.50;0.30;;;12.60;99.90;;;;;;5075216;28;20984;-81
2022/12/31 04:07:32;;;;;;;0.40;0.30;;;12.60;99.90;;;;;;5075453;28;20484;-82
2022/12/31 04:09:59;;;;;;;0.40;0.30;;;12.70;99.90;;;;;;5075212;28;20457;-82
2022/12/31 04:12:25;;;;;;;0.50;0.30;;;12.60;99.90;;;;;;5075017;28;20456;-82
2022/12/31 04:14:52;;;;;;;0.40;0.40;;;12.70;99.90;;;;;;5075080;28;20972;-81
2022/12/31 04:17:19;;;;;;;0.30;0.30;;;12.70;99.90;;;;;;5075373;28;20453;-82
2022/12/31 04:19:46;;;;;;;0.30;0.23;;;12.80;99.90;;;;;;5075247;28;20958;-82
2022/12/31 04:22:12;;;;;;;0.40;0.30;;;12.80;99.90;;;;;;5075640;28;20477;-82
2022/12/31 04:24:42;;;;;;;0.50;0.30;;;12.80;99.90;;;;;;5075118;28;20466;-81
2022/12/31 04:27:09;;;;;;;0.30;0.30;;;12.80;99.90;;;;;;5074751;28;21004;-82
2022/12/31 04:29:36;;;;;;;0.30;0.30;;;12.80;99.90;;;;;;5075080;28;20453;-82
2022/12/31 04:32:04;;;;;;;0.30;0.30;;;12.80;99.90;;;;;;5074760;28;20952;-81
2022/12/31 04:34:31;;;;;;;0.40;0.30;;;12.90;99.90;;;;;;5074989;28;20469;-81
2022/12/31 04:36:58;;;;;;;0.63;0.30;;;12.90;99.90;;;;;;5074671;28;20953;-82
2022/12/31 04:39:26;;;;;;;0.30;0.30;;;12.90;99.90;;;;;;5074915;28;20449;-82
2022/12/31 04:41:54;;;;;;;0.30;0.30;;;12.80;99.90;;;;;;5074857;28;20453;-82
2022/12/31 04:44:21;;;;;;;0.30;0.30;;;12.80;99.90;;;;;;5073291;28;20465;-81
2022/12/31 04:46:48;;;;;;;1.60;0.40;;;12.80;99.90;;;;;;5074736;28;20472;-81
2022/12/31 04:49:15;;;;;;;0.30;0.30;;;12.90;99.90;;;;;;5074721;28;20441;-81
2022/12/31 04:51:41;;;;;;;0.40;0.30;;;13.00;99.90;;;;;;5074659;28;20456;-82
2022/12/31 04:54:08;;;;;;;5.43;0.80;;;13.00;99.90;;;;;;5074852;28;20837;-81
2022/12/31 04:56:35;;;;;;;0.30;0.30;;;12.90;99.90;;;;;;5074737;28;20449;-82
2022/12/31 04:59:04;;;;;;;0.30;0.30;;;12.90;99.90;;;;;;5074745;28;20500;-82
2022/12/31 05:01:31;;;;;;;0.30;0.30;;;12.90;99.90;;;;;;5074119;28;20964;-82
2022/12/31 05:03:58;;;;;;;0.30;0.23;;;13.00;99.90;;;;;;5074549;28;20465;-82
2022/12/31 05:06:25;;;;;;;0.40;0.30;;;13.00;99.90;;;;;;5074014;28;21081;-82
2022/12/31 05:08:52;;;;;;;0.30;0.30;;;13.00;99.90;;;;;;5074264;28;20847;-82
2022/12/31 05:11:18;;;;;;;0.40;0.40;;;13.00;99.90;;;;;;5074238;28;20462;-82
2022/12/31 05:13:45;;;;;;;0.30;0.30;;;12.90;99.90;;;;;;5073750;28;20493;-82
2022/12/31 05:16:13;;;;;;;0.30;0.30;;;12.80;99.90;;;;;;5073826;28;20814;-82
2022/12/31 05:18:40;;;;;;;0.30;0.30;;;12.80;99.90;;;;;;5074397;28;20441;-82
2022/12/31 05:21:07;;;;;;;0.60;0.40;;;12.80;99.90;;;;;;5074048;28;20454;-82
2022/12/31 05:23:34;;;;;;;0.40;0.30;;;12.90;99.90;;;;;;5073676;28;20472;-82
2022/12/31 05:26:01;;;;;;;0.87;0.40;;;12.90;99.90;;;;;;5073996;28;20446;-82
2022/12/31 05:28:28;;;;;;;0.40;0.30;;;12.90;99.90;;;;;;5073578;28;20481;-82
2022/12/31 05:30:55;;;;;;;0.87;0.43;;;12.80;99.90;;;;;;5073931;28;20449;-82
2022/12/31 05:33:23;;;;;;;0.33;0.30;;;12.90;99.90;;;;;;5073807;28;20445;-82
2022/12/31 05:35:50;;;;;;;0.30;0.30;;;12.90;99.90;;;;;;5073551;28;20937;-82
2022/12/31 05:38:17;;;;;;;0.30;0.30;;;12.80;99.90;;;;;;5073840;28;20452;-82
2022/12/31 05:40:44;;;;;;;0.30;0.30;;;12.90;99.90;;;;;;5073755;28;20456;-82
2022/12/31 05:43:11;;;;;;;0.30;0.20;;;12.80;99.90;;;;;;5073374;28;20449;-83
2022/12/31 05:45:37;;;;;;;0.30;0.30;;;12.70;99.90;;;;;;5073641;28;20453;-82
2022/12/31 05:48:04;;;;;;;1.50;0.40;;;12.70;99.90;;;;;;5073599;28;20480;-82
2022/12/31 05:50:33;;;;;;;0.40;0.30;;;12.60;99.90;;;;;;5073290;28;20836;-83
2022/12/31 05:52:59;;;;;;;0.30;0.20;;;12.50;99.90;;;;;;5073562;28;20446;-83
2022/12/31 05:55:26;;;;;;;0.37;0.30;;;12.40;99.90;;;;;;5073345;28;20824;-82
2022/12/31 05:57:53;;;;;;;0.30;0.30;;;12.40;99.90;;;;;;5073573;28;20449;-82
2022/12/31 06:00:20;;;;;;;0.33;0.30;;;12.40;99.90;;;;;;5073266;28;20430;-82
2022/12/31 06:02:46;;;;;;;0.30;0.30;;;12.30;99.90;;;;;;5073169;28;20450;-83
2022/12/31 06:05:13;;;;;;;0.40;0.30;;;12.30;99.90;;;;;;5073385;28;20470;-82
2022/12/31 06:07:41;;;;;;;0.30;0.30;;;12.30;99.90;;;;;;5073334;28;20481;-83
2022/12/31 06:10:08;;;;;;;0.40;0.30;;;12.20;99.90;;;;;;5073415;28;20449;-83
2022/12/31 06:12:36;;;;;;;0.30;0.30;;;12.20;99.90;;;;;;5072830;28;20920;-83
2022/12/31 06:15:03;;;;;;;0.40;0.30;;;12.20;99.90;;;;;;5073332;28;20471;-83
2022/12/31 06:17:31;;;;;;;0.40;0.40;;;12.20;99.90;;;;;;5073066;28;20975;-82
2022/12/31 06:19:58;;;;;;;2.40;0.33;;;12.20;99.90;;;;;;5072983;28;20971;-83
2022/12/31 06:22:25;;;;;;;0.30;0.30;;;12.20;99.90;;;;;;5072978;28;20945;-82
2022/12/31 06:24:53;;;;;;;0.60;0.40;;;12.20;99.90;;;;;;5073215;28;20835;-83
2022/12/31 06:27:20;;;;;;;0.40;0.30;;;12.20;99.90;;;;;;5072926;28;20456;-83
2022/12/31 06:29:46;;;;;;;0.30;0.30;;;12.10;99.90;;;;;;5073186;28;20452;-82
2022/12/31 06:32:13;;;;;;;0.30;0.30;;;12.20;99.90;;;;;;5073460;28;20445;-83
2022/12/31 06:34:40;;;;;;;0.30;0.30;;;12.20;99.90;;;;;;5073151;28;20463;-83
2022/12/31 06:37:07;;;;;;;0.40;0.30;;;12.20;99.90;;;;;;5073140;28;20452;-83
2022/12/31 06:39:34;;;;;;;0.30;0.30;;;12.10;99.90;;;;;;5073159;28;20452;-83
2022/12/31 06:42:02;;;;;;;0.30;0.20;;;12.10;99.90;;;;;;5073088;28;20452;-83
2022/12/31 06:44:28;;;;;;;0.30;0.30;;;12.10;99.90;;;;;;5073078;28;20473;-83
2022/12/31 06:46:55;;;;;;;0.30;0.30;;;12.10;99.90;;;;;;5073041;28;20815;-83
2022/12/31 06:49:22;;;;;;;0.40;0.30;;;12.10;99.90;;;;;;5072998;28;20572;-83
2022/12/31 06:51:48;;;;;;;0.30;0.30;;;12.10;99.90;;;;;;5073056;28;20429;-83
2022/12/31 06:54:15;;;;;;;0.30;0.30;;;12.20;99.90;;;;;;5072958;28;20469;-83
2022/12/31 06:56:42;;;;;;;0.50;0.30;;;12.20;99.90;;;;;;5072944;28;20450;-83
2022/12/31 06:59:23;;;;;;;0.30;0.30;;;12.30;99.90;;;;;;5072639;28;20544;-83
2022/12/31 07:02:05;;;;;;;0.30;0.30;;;12.30;99.90;;;;;;5073086;28;20442;-83
2022/12/31 07:04:57;;;;;;;0.30;0.30;;;12.30;99.90;;;;;;5072838;28;20465;-83
2022/12/31 07:07:30;;;;;;;0.40;0.40;;;12.30;99.90;;;;;;5074486;28;20440;-83
2022/12/31 07:10:03;;;;;;;0.37;0.37;;;12.20;99.90;;;;;;5076611;28;20462;-83
2022/12/31 07:12:52;;;;;;;0.73;0.40;;;12.20;99.90;;;;;;5076344;28;20437;-84
2022/12/31 07:15:41;;;;;;;0.40;0.40;;;12.20;99.90;;;;;;5076170;28;20560;-83
2022/12/31 07:18:19;;;;;;;0.40;0.40;;;12.30;99.90;;;;;;5076578;28;20438;-83
2022/12/31 07:20:46;;;;;;;0.30;0.30;;;12.30;99.90;;;;;;5076881;28;20449;-83
2022/12/31 07:23:14;;;;;;;0.37;0.30;;;12.30;99.90;;;;;;5075964;28;20449;-83
2022/12/31 07:25:51;;;;;;;0.30;0.30;;;12.30;99.90;;;;;;5076057;28;20945;-83
2022/12/31 07:28:28;;;;;;;0.40;0.40;;;12.40;99.90;;;;;;5076615;28;20807;-83
2022/12/31 07:31:04;;;;;;;0.40;0.30;;;12.40;99.90;;;;;;5075969;28;20905;-83
2022/12/31 07:33:46;;;;;;;0.40;0.40;;;12.40;99.90;;;;;;5076145;28;20476;-83
2022/12/31 07:36:21;;;;;;;0.40;0.30;;;12.50;99.90;;;;;;5075831;28;20932;-83
2022/12/31 07:38:53;;;;;;;0.30;0.30;;;12.50;99.90;;;;;;5076170;28;20546;-83
2022/12/31 07:41:31;;;;;;;0.30;0.30;;;12.50;99.90;;;;;;5076735;28;20474;-83
2022/12/31 07:44:05;;;;;;;0.40;0.40;;;12.50;99.90;;;;;;5075941;28;20472;-84
2022/12/31 07:46:43;;;;;;;0.30;0.30;;;12.60;99.90;;;;;;5075661;28;20430;-84
2022/12/31 07:49:12;;;;;;;0.30;0.30;;;12.60;99.90;;;;;;5075854;28;20469;-83
2022/12/31 07:51:40;;;;;;;0.40;0.30;;;12.60;99.90;;;;;;5075497;28;20941;-83
2022/12/31 07:54:06;;;;;;;0.40;0.40;;;12.50;99.90;;;;;;5075428;28;20976;-82
2022/12/31 07:56:33;;;;;;;0.30;0.20;;;12.60;99.90;;;;;;5075769;28;20445;-83
2022/12/31 07:59:15;;;;;;;0.30;0.30;;;12.60;99.90;;;;;;5075724;28;20453;-83
2022/12/31 08:01:48;;;;;;;2.87;0.40;;;12.60;99.90;;;;;;5075729;28;20434;-82
2022/12/31 08:04:24;;;;;;;0.40;0.30;;;12.60;99.90;;;;;;5075501;28;20844;-82
2022/12/31 08:06:58;;;;;;;0.30;0.30;;;12.70;99.90;;;;;;5075623;28;20425;-83
2022/12/31 08:09:34;;;;;;;0.40;0.30;;;12.80;99.90;;;;;;5075193;28;20468;-83
2022/12/31 08:12:02;;;;;;;0.30;0.30;;;12.80;99.90;;;;;;5075503;28;20441;-83
2022/12/31 08:14:30;;;;;;;0.30;0.30;;;12.90;99.90;;;;;;5075137;28;20485;-83
2022/12/31 08:16:59;;;;;;;0.37;0.30;;;12.90;99.90;;;;;;5075347;28;20503;-83
2022/12/31 08:19:29;;;;;;;0.30;0.30;;;12.90;99.90;;;;;;5074971;28;20453;-83
2022/12/31 08:22:10;;;;;;;0.60;0.30;;;13.00;99.90;;;;;;5075242;28;20456;-83
2022/12/31 08:24:49;;;;;;;0.30;0.30;;;13.00;99.90;;;;;;5074918;28;21003;-83
2022/12/31 08:27:24;;;;;;;0.40;0.33;;;13.10;99.90;;;;;;5074888;28;20433;-82
2022/12/31 08:30:01;;;;;;;0.30;0.30;;;13.20;99.90;;;;;;5074773;28;20469;-83
2022/12/31 08:32:36;;;;;;;0.30;0.30;;;13.30;99.90;;;;;;5075107;28;20426;-83
2022/12/31 08:35:08;;;;;;;0.30;0.30;;;13.40;99.90;;;;;;5074913;28;20469;-83
2022/12/31 08:37:40;;;;;;;0.30;0.20;;;13.50;99.90;;;;;;5074915;28;20781;-83
2022/12/31 08:40:19;;;;;;;0.40;0.30;;;13.50;99.90;;;;;;5074900;28;20426;-83
2022/12/31 08:43:01;;;;;;;0.30;0.30;;;13.50;99.90;;;;;;5074892;28;20425;-83
2022/12/31 08:45:36;;;;;;;0.30;0.30;;;13.60;99.90;;;;;;5074736;28;20465;-83
2022/12/31 08:48:13;;;;;;;0.40;0.30;;;13.60;99.90;;;;;;5074715;28;20441;-83
2022/12/31 08:50:41;;;;;;;0.60;0.40;;;13.70;99.90;;;;;;5074412;28;20800;-82
2022/12/31 08:53:08;;;;;;;0.40;0.30;;;13.80;99.90;;;;;;5074235;28;20944;-82
2022/12/31 08:55:35;;;;;;;0.30;0.30;;;13.80;99.90;;;;;;5074550;28;20529;-83
2022/12/31 08:58:12;;;;;;;0.80;0.40;;;13.90;99.90;;;;;;5074531;28;20446;-82
2022/12/31 09:00:40;;;;;;;0.30;0.30;;;13.90;99.90;;;;;;5074176;28;20801;-82
2022/12/31 09:03:53;;;;;;;0.40;0.30;;;13.90;99.90;;;;;;5074320;28;20453;-83
2022/12/31 09:06:26;;;;;;;0.30;0.30;;;13.90;99.90;;;;;;5074338;28;20785;-83
2022/12/31 09:08:58;;;;;;;0.30;0.30;;;14.00;99.90;;;;;;5073940;28;20514;-83
2022/12/31 09:11:33;;;;;;;0.40;0.30;;;14.10;99.90;;;;;;5074310;28;20430;-82
2022/12/31 09:14:12;;;;;;;0.40;0.30;;;14.20;99.90;;;;;;5073822;28;20476;-83
2022/12/31 09:16:45;;;;;;;0.40;0.30;;;14.30;99.90;;;;;;5074183;28;20438;-83
2022/12/31 09:19:13;;;;;;;0.40;0.30;;;14.40;99.90;;;;;;5074392;28;20425;-83
2022/12/31 09:21:43;;;;;;;0.40;0.30;;;14.60;99.90;;;;;;5074063;28;20445;-83
2022/12/31 09:24:12;;;;;;;0.77;0.30;;;14.70;99.90;;;;;;5073892;28;20511;-83
2022/12/31 09:26:48;;;;;;;0.57;0.40;;;14.80;99.90;;;;;;5073643;28;20455;-83
2022/12/31 09:29:30;;;;;;;0.30;0.30;;;15.00;99.90;;;;;;5073109;28;20477;-83
2022/12/31 09:32:04;;;;;;;0.47;0.47;;;15.10;99.90;;;;;;5073953;28;20438;-83
2022/12/31 09:34:41;;;;;;;0.30;0.30;;;15.20;99.90;;;;;;5073790;28;20460;-83
2022/12/31 09:37:15;;;;;;;0.40;0.40;;;15.30;99.90;;;;;;5073835;28;20430;-82
2022/12/31 09:39:44;;;;;;;0.80;0.30;;;15.30;99.90;;;;;;5073827;28;20430;-82
2022/12/31 09:42:49;;;;;;;0.97;0.30;;;15.30;99.90;;;;;;5073733;28;20511;-82
2022/12/31 09:45:32;;;;;;;0.37;0.30;;;15.50;99.90;;;;;;5073541;28;20465;-82
2022/12/31 09:48:50;;;;;;;0.40;0.30;;;15.60;99.90;;;;;;5073754;28;20415;-83
2022/12/31 09:51:30;;;;;;;0.40;0.30;;;15.80;99.90;;;;;;5073662;28;20422;-83
2022/12/31 09:54:19;;;;;;;0.63;0.20;;;16.00;99.90;;;;;;5073233;28;20464;-83
2022/12/31 09:56:57;;;;;;;0.70;0.40;;;16.60;99.90;;;;;;5073308;28;20913;-83
2022/12/31 09:59:30;;;;;;;0.90;0.30;;;17.30;99.90;;;;;;5073530;28;20445;-82
2022/12/31 10:02:02;;;;;;;0.60;0.43;;;18.30;99.90;;;;;;5073513;28;20441;-82
2022/12/31 10:04:52;;;;;;;0.30;0.30;;;19.10;99.90;;;;;;5073156;28;20992;-82
2022/12/31 10:07:44;;;;;;;0.67;0.30;;;19.90;99.90;;;;;;5073125;28;20913;-83
2022/12/31 10:10:18;;;;;;;0.30;0.30;;;20.40;99.90;;;;;;5073614;28;20472;-83
2022/12/31 10:13:10;;;;;;;0.40;0.30;;;21.10;99.90;;;;;;5073186;28;20485;-83
2022/12/31 10:16:15;;;;;;;0.40;0.40;;;21.50;99.90;;;;;;5073103;28;20924;-83
2022/12/31 10:19:13;;;;;;;0.40;0.40;;;21.10;99.90;;;;;;5073338;28;20504;-83
2022/12/31 10:21:53;;;;;;;0.30;0.30;;;20.40;99.90;;;;;;5073600;28;20445;-83
2022/12/31 10:24:42;;;;;;;0.80;0.33;;;19.80;99.90;;;;;;5073279;28;20461;-83
2022/12/31 10:27:34;;;;;;;0.70;0.30;;;19.30;99.90;;;;;;5073254;28;20445;-83
2022/12/31 10:30:11;;;;;;;0.60;0.37;;;18.90;99.90;;;;;;5062729;28;20489;-83
2022/12/31 10:32:43;;;;;;;0.40;0.30;;;18.40;99.90;;;;;;5073183;28;20443;-82
2022/12/31 10:35:21;;;;;;;0.40;0.30;;;18.20;99.90;;;;;;5073010;28;20890;-83
2022/12/31 10:37:57;;;;;;;0.40;0.30;;;18.10;99.90;;;;;;5073206;28;20425;-83
2022/12/31 10:40:44;;;;;;;0.30;0.30;;;18.00;99.90;;;;;;5073141;28;20421;-83
2022/12/31 10:43:46;;;;;;;0.50;0.50;;;18.00;99.90;;;;;;5076773;28;20426;-83
2022/12/31 10:46:35;;;;;;;0.63;0.50;;;17.80;99.90;;;;;;5077659;28;20456;-83
2022/12/31 10:49:25;;;;;;;0.40;0.33;;;17.60;99.90;;;;;;5076901;28;20469;-83
2022/12/31 10:52:15;;;;;;;0.30;0.30;;;17.50;99.90;;;;;;5077142;28;20450;-84
2022/12/31 10:55:17;;;;;;;0.30;0.30;;;17.30;99.90;;;;;;5047955;28;20465;-84
2022/12/31 10:58:12;;;;;;;0.50;0.40;;;17.10;99.90;;;;;;5076870;28;20830;-83
2022/12/31 11:00:47;;;;;;;0.40;0.30;;;17.00;99.90;;;;;;5076785;28;20422;-82
2022/12/31 11:03:47;;;;;;;0.40;0.30;;;17.00;99.90;;;;;;5076385;28;20788;-82
2022/12/31 11:06:46;;;;;;;0.40;0.30;;;16.90;99.90;;;;;;5076696;28;20434;-83
2022/12/31 11:09:55;;;;;;;0.33;0.30;;;16.90;99.90;;;;;;5076852;28;20461;-82
2022/12/31 11:12:50;;;;;;;0.30;0.20;;;16.90;99.90;;;;;;5076343;28;20426;-82
2022/12/31 11:15:38;;;;;;;0.40;0.30;;;16.90;99.90;;;;;;5063111;28;20465;-82
2022/12/31 11:18:15;;;;;;;0.70;0.30;;;16.90;99.90;;;;;;5076479;28;20429;-82
2022/12/31 11:21:10;;;;;;;0.30;0.30;;;17.00;99.90;;;;;;5076426;28;20429;-83
2022/12/31 11:23:51;;;;;;;0.30;0.27;;;17.10;99.90;;;;;;5076390;28;20462;-82
2022/12/31 11:26:29;;;;;;;0.30;0.30;;;17.10;99.90;;;;;;5076316;28;20437;-82
2022/12/31 11:29:30;;;;;;;0.67;0.40;;;17.00;99.90;;;;;;5076243;28;20432;-82
2022/12/31 11:32:12;;;;;;;0.40;0.30;;;16.90;99.90;;;;;;5076205;28;20428;-83
2022/12/31 11:35:18;;;;;;;0.40;0.40;;;16.90;99.90;;;;;;5076060;28;20601;-82
2022/12/31 11:37:47;;;;;;;0.40;0.30;;;16.90;99.90;;;;;;5075842;28;20437;-80
2022/12/31 11:40:37;;;;;;;0.40;0.30;;;16.90;99.90;;;;;;5075979;28;20452;-80
2022/12/31 11:43:15;;;;;;;0.40;0.30;;;17.00;99.90;;;;;;5075743;28;20425;-83
2022/12/31 11:46:02;;;;;;;9.53;0.33;;;17.00;99.90;;;;;;5075897;28;20432;-83
2022/12/31 11:48:36;;;;;;;0.37;0.30;;;17.00;99.90;;;;;;5075941;28;20508;-83
2022/12/31 11:51:23;;;;;;;0.40;0.30;;;17.00;99.90;;;;;;5075740;28;20469;-83
2022/12/31 11:54:15;;;;;;;0.40;0.30;;;16.90;99.90;;;;;;5075271;28;20472;-83
2022/12/31 11:56:47;;;;;;;0.40;0.30;;;16.90;99.90;;;;;;5074836;28;20820;-83
2022/12/31 11:59:15;;;;;;;0.50;0.30;;;16.90;99.90;;;;;;5075393;28;20426;-84
2022/12/31 12:01:52;;;;;;;0.63;0.47;;;16.90;99.90;;;;;;5075318;28;20798;-83
2022/12/31 12:04:20;;;;;;;0.40;0.30;;;16.90;99.90;;;;;;5075624;28;20980;-83
2022/12/31 12:06:46;;;;;;;0.30;0.30;;;16.90;99.90;;;;;;5075545;28;20457;-83
2022/12/31 12:09:21;;;;;;;0.40;0.40;;;16.90;99.90;;;;;;5075438;28;20481;-83
2022/12/31 12:11:58;;;;;;;0.40;0.30;;;16.80;99.90;;;;;;5075729;28;20869;-83
2022/12/31 12:14:31;;;;;;;0.30;0.30;;;16.90;99.90;;;;;;5074941;28;20999;-83
2022/12/31 12:16:59;;;;;;;0.43;0.40;;;16.90;99.90;;;;;;5075990;28;20425;-83
2022/12/31 12:19:31;;;;;;;0.40;0.30;;;16.90;99.90;;;;;;5075284;28;20445;-84
2022/12/31 12:21:58;;;;;;;0.50;0.50;;;16.90;99.90;;;;;;5075289;28;20441;-83
2022/12/31 12:24:26;;;;;;;0.30;0.30;;;16.90;99.90;;;;;;5075149;28;20473;-83
2022/12/31 12:26:54;;;;;;;0.30;0.30;;;16.90;99.90;;;;;;5075247;28;20425;-83
2022/12/31 12:29:23;;;;;;;0.33;0.30;;;16.90;99.90;;;;;;5074770;28;20438;-83
2022/12/31 12:31:56;;;;;;;0.47;0.30;;;16.90;99.90;;;;;;5075372;28;20457;-84
2022/12/31 12:34:24;;;;;;;0.50;0.40;;;16.80;99.90;;;;;;5074907;28;21008;-83
2022/12/31 12:36:53;;;;;;;0.53;0.30;;;16.80;99.90;;;;;;5074598;28;20948;-83
2022/12/31 12:39:22;;;;;;;0.40;0.40;;;16.80;99.90;;;;;;5075606;28;20461;-83
2022/12/31 12:42:00;;;;;;;0.40;0.37;;;16.90;99.90;;;;;;5074881;28;20457;-82
2022/12/31 12:44:27;;;;;;;0.60;0.30;;;16.80;99.90;;;;;;5074772;28;20469;-83
2022/12/31 12:46:54;;;;;;;0.40;0.30;;;16.80;99.90;;;;;;5074653;28;20449;-83
2022/12/31 12:49:23;;;;;;;1.13;0.40;;;16.80;99.90;;;;;;5074708;28;20450;-83
2022/12/31 12:52:14;;;;;;;0.47;0.30;;;16.70;99.90;;;;;;5074896;28;20448;-83
2022/12/31 12:54:59;;;;;;;0.30;0.20;;;16.80;99.90;;;;;;5074850;28;20466;-83
2022/12/31 12:57:34;;;;;;;0.30;0.30;;;16.80;99.90;;;;;;5074323;28;20433;-82
2022/12/31 13:00:16;;;;;;;0.70;0.30;;;16.80;99.90;;;;;;5074556;28;20438;-82
2022/12/31 13:03:19;;;;;;;0.30;0.30;;;16.80;99.90;;;;;;5074483;28;20801;-83
2022/12/31 13:06:00;;;;;;;0.30;0.30;;;16.80;99.90;;;;;;5073139;28;20439;-84
2022/12/31 13:08:45;;;;;;;0.40;0.30;;;16.80;99.90;;;;;;5074432;28;20437;-84
2022/12/31 13:11:29;;;;;;;0.37;0.30;;;16.70;99.90;;;;;;5073857;28;20481;-83
2022/12/31 13:14:05;;;;;;;0.40;0.30;;;16.60;99.90;;;;;;5073788;28;20581;-83
2022/12/31 13:16:38;;;;;;;0.30;0.30;;;16.50;99.90;;;;;;5073872;28;20444;-83
2022/12/31 13:19:16;;;;;;;0.40;0.30;;;16.40;99.90;;;;;;5074125;28;20465;-82
2022/12/31 13:21:52;;;;;;;0.30;0.30;;;16.40;99.90;;;;;;5074064;28;20425;-83
2022/12/31 13:24:30;;;;;;;0.30;0.30;;;16.40;99.90;;;;;;5074038;28;20476;-82
2022/12/31 13:27:04;;;;;;;0.30;0.20;;;16.40;99.90;;;;;;5074008;28;20437;-83
2022/12/31 13:29:34;;;;;;;0.50;0.30;;;16.30;99.90;;;;;;5073588;28;20971;-83